createdAt,value
2023-11-01T00:04:25.579Z,3.83
2023-11-01T00:09:29.436Z,3.79
2023-11-01T00:14:31.962Z,3.77
2023-11-01T00:19:34.573Z,3.74
2023-11-01T00:24:44.192Z,3.74
2023-11-01T00:29:47.096Z,3.75
2023-11-01T00:34:49.705Z,3.78
2023-11-01T00:39:53.702Z,3.74
2023-11-01T00:44:56.224Z,3.67
2023-11-01T00:49:58.799Z,3.67
2023-11-01T00:55:02.821Z,3.67
2023-11-01T01:00:07.871Z,3.64
2023-11-01T01:05:10.700Z,3.65
2023-11-01T01:10:14.586Z,3.63
2023-11-01T01:15:17.432Z,3.59
2023-11-01T01:20:20.496Z,3.56
2023-11-01T01:25:24.630Z,3.52
2023-11-01T01:30:27.196Z,3.51
2023-11-01T01:35:29.778Z,3.46
2023-11-01T01:40:35.226Z,3.45
2023-11-01T01:45:37.817Z,3.47
2023-11-01T01:50:41.141Z,3.49
2023-11-01T01:55:45.290Z,3.51
2023-11-01T02:00:47.885Z,3.56
2023-11-01T02:05:50.497Z,3.56
2023-11-01T02:10:54.439Z,3.51
2023-11-01T02:15:57.222Z,3.46
2023-11-01T02:21:00.074Z,3.45
2023-11-01T02:26:04.705Z,3.40
2023-11-01T02:31:09.071Z,3.34
2023-11-01T02:36:11.958Z,3.31
2023-11-01T02:41:16.430Z,3.26
2023-11-01T02:46:18.996Z,3.29
2023-11-01T02:51:21.520Z,3.27
2023-11-01T02:56:25.495Z,3.24
2023-11-01T03:01:28.114Z,3.26
2023-11-01T03:06:30.713Z,3.29
2023-11-01T03:11:34.558Z,3.30
2023-11-01T03:16:37.260Z,3.30
2023-11-01T03:21:41.930Z,3.25
2023-11-01T03:26:46.633Z,3.20
2023-11-01T03:31:49.397Z,3.15
2023-11-01T03:36:52.076Z,3.11
2023-11-01T03:41:55.944Z,3.04
2023-11-01T03:46:58.520Z,3.01
2023-11-01T03:52:02.374Z,2.93
2023-11-01T03:57:06.494Z,2.92
2023-11-01T04:02:09.926Z,2.89
2023-11-01T04:07:12.431Z,2.93
2023-11-01T04:12:16.282Z,3.02
2023-11-01T04:17:19.976Z,3.13
2023-11-01T04:22:22.517Z,3.23
2023-11-01T04:27:26.379Z,3.30
2023-11-01T04:32:30.903Z,3.40
2023-11-01T04:37:33.434Z,3.46
2023-11-01T04:42:39.913Z,3.50
2023-11-01T04:47:44.222Z,3.52
2023-11-01T04:52:48.470Z,3.56
2023-11-01T04:57:53.455Z,3.60
2023-11-01T05:02:56.046Z,3.67
2023-11-01T05:07:58.567Z,3.68
2023-11-01T05:13:03.390Z,3.70
2023-11-01T05:18:06.117Z,3.72
2023-11-01T05:23:08.886Z,3.72
2023-11-01T05:28:12.768Z,3.72
2023-11-01T05:33:15.584Z,3.75
2023-11-01T05:38:18.362Z,3.80
2023-11-01T05:43:22.189Z,3.86
2023-11-01T05:48:24.704Z,3.94
2023-11-01T05:53:27.341Z,3.99
2023-11-01T05:58:31.290Z,4.06
2023-11-01T06:03:34.039Z,4.13
2023-11-01T06:08:36.680Z,4.20
2023-11-01T06:13:40.543Z,4.17
2023-11-01T06:18:44.495Z,4.24
2023-11-01T06:23:48.158Z,4.35
2023-11-01T06:28:52.033Z,4.45
2023-11-01T06:33:54.656Z,4.53
2023-11-01T06:38:57.249Z,4.59
2023-11-01T06:44:01.100Z,4.66
2023-11-01T06:49:03.736Z,4.76
2023-11-01T06:54:06.452Z,4.82
2023-11-01T06:59:10.280Z,4.94
2023-11-01T07:04:12.847Z,5.00
2023-11-01T07:09:15.556Z,5.06
2023-11-01T07:14:19.504Z,5.10
2023-11-01T07:19:22.021Z,5.16
2023-11-01T07:24:24.529Z,5.27
2023-11-01T07:29:28.406Z,5.38
2023-11-01T07:34:31.270Z,5.46
2023-11-01T07:39:33.952Z,5.54
2023-11-01T07:44:37.800Z,5.59
2023-11-01T07:49:40.314Z,5.66
2023-11-01T07:54:42.837Z,5.70
2023-11-01T07:59:46.699Z,5.76
2023-11-01T08:04:49.830Z,5.85
2023-11-01T08:09:52.740Z,5.91
2023-11-01T08:14:56.664Z,6.00
2023-11-01T08:20:02.167Z,6.10
2023-11-01T08:25:07.673Z,6.18
2023-11-01T08:30:12.663Z,6.33
2023-11-01T08:35:15.293Z,6.43
2023-11-01T08:40:17.882Z,6.52
2023-11-01T08:45:21.894Z,6.64
2023-11-01T08:50:24.454Z,6.75
2023-11-01T08:55:27.006Z,6.84
2023-11-01T09:00:39.477Z,6.89
2023-11-01T09:05:48.513Z,6.97
2023-11-01T09:10:53.655Z,7.00
2023-11-01T09:15:58.318Z,7.01
2023-11-01T09:21:01.486Z,6.96
2023-11-01T09:26:04.518Z,7.00
2023-11-01T09:31:08.432Z,7.02
2023-11-01T09:36:12.429Z,7.08
2023-11-01T09:41:19.932Z,7.23
2023-11-01T09:46:24.865Z,7.37
2023-11-01T09:51:27.769Z,7.65
2023-11-01T09:56:34.059Z,7.78
2023-11-01T10:01:38.922Z,7.99
2023-11-01T10:06:45.117Z,8.45
2023-11-01T10:11:47.735Z,8.95
2023-11-01T10:16:51.616Z,9.38
2023-11-01T10:21:54.622Z,9.66
2023-11-01T10:26:59.011Z,9.66
2023-11-01T10:32:02.885Z,10.10
2023-11-01T10:37:06.948Z,10.51
2023-11-01T10:42:11.533Z,10.69
2023-11-01T10:47:16.075Z,10.67
2023-11-01T10:52:19.145Z,10.74
2023-11-01T10:57:23.320Z,10.83
2023-11-01T11:02:34.371Z,10.92
2023-11-01T11:07:46.887Z,10.91
2023-11-01T11:13:32.438Z,10.91
2023-11-01T11:18:57.094Z,10.97
2023-11-01T11:23:59.770Z,10.93
2023-11-01T11:29:02.310Z,10.93
2023-11-01T11:34:16.106Z,11.04
2023-11-01T11:39:18.805Z,10.96
2023-11-01T11:44:21.456Z,11.03
2023-11-01T11:49:27.498Z,11.08
2023-11-01T11:54:31.950Z,11.08
2023-11-01T11:59:35.854Z,11.11
2023-11-01T12:04:41.641Z,11.13
2023-11-01T12:09:48.731Z,11.13
2023-11-01T12:14:58.865Z,11.03
2023-11-01T12:20:02.742Z,10.93
2023-11-01T12:25:05.913Z,10.88
2023-11-01T12:30:09.545Z,10.83
2023-11-01T12:35:13.453Z,10.90
2023-11-01T12:40:18.193Z,10.92
2023-11-01T12:45:22.100Z,11.07
2023-11-01T12:50:27.335Z,11.32
2023-11-01T12:55:30.657Z,11.47
2023-11-01T13:00:33.255Z,11.47
2023-11-01T13:05:37.551Z,11.48
2023-11-01T13:10:40.086Z,11.55
2023-11-01T13:15:42.704Z,11.60
2023-11-01T13:20:46.607Z,11.62
2023-11-01T13:25:49.148Z,11.65
2023-11-01T13:30:51.682Z,11.66
2023-11-01T13:35:55.797Z,11.66
2023-11-01T13:40:58.339Z,11.62
2023-11-01T13:46:01.825Z,11.59
2023-11-01T13:51:06.601Z,11.61
2023-11-01T13:56:10.007Z,11.60
2023-11-01T14:01:12.588Z,11.60
2023-11-01T14:06:16.451Z,11.60
2023-11-01T14:11:19.087Z,11.57
2023-11-01T14:16:21.734Z,11.55
2023-11-01T14:21:26.357Z,11.56
2023-11-01T14:26:29.149Z,11.51
2023-11-01T14:31:31.896Z,11.49
2023-11-01T14:36:36.069Z,11.47
2023-11-01T14:41:38.855Z,11.41
2023-11-01T14:46:43.108Z,11.42
2023-11-01T14:51:46.970Z,11.42
2023-11-01T14:56:49.740Z,11.41
2023-11-01T15:01:55.257Z,11.44
2023-11-01T15:06:59.761Z,11.42
2023-11-01T15:12:02.396Z,11.41
2023-11-01T15:17:05.397Z,11.40
2023-11-01T15:22:09.418Z,11.41
2023-11-01T15:27:12.012Z,11.43
2023-11-01T15:32:16.107Z,11.41
2023-11-01T15:37:21.482Z,11.41
2023-11-01T15:42:26.445Z,11.40
2023-11-01T15:47:29.175Z,11.39
2023-11-01T15:52:34.403Z,11.38
2023-11-01T15:57:36.955Z,11.39
2023-11-01T16:02:39.574Z,11.41
2023-11-01T16:07:44.817Z,11.40
2023-11-01T16:12:48.728Z,11.39
2023-11-01T16:17:51.416Z,11.42
2023-11-01T16:22:55.475Z,11.43
2023-11-01T16:27:58.024Z,11.45
2023-11-01T16:33:02.988Z,11.48
2023-11-01T16:38:07.225Z,11.50
2023-11-01T16:43:09.809Z,11.52
2023-11-01T16:48:12.377Z,11.54
2023-11-01T16:53:16.294Z,11.56
2023-11-01T16:58:18.841Z,11.57
2023-11-01T17:03:21.554Z,11.59
2023-11-01T17:08:25.489Z,11.61
2023-11-01T17:13:28.596Z,11.62
2023-11-01T17:18:31.202Z,11.62
2023-11-01T17:23:35.302Z,11.65
2023-11-01T17:28:38.681Z,11.68
2023-11-01T17:33:42.998Z,11.72
2023-11-01T17:38:46.924Z,11.75
2023-11-01T17:43:53.086Z,11.77
2023-11-01T17:48:56.902Z,11.80
2023-11-01T17:54:03.368Z,11.81
2023-11-01T17:59:06.354Z,11.84
2023-11-01T18:04:09.035Z,11.83
2023-11-01T18:09:19.437Z,11.85
2023-11-01T18:14:22.011Z,11.88
2023-11-01T18:19:24.540Z,11.88
2023-11-01T18:24:40.886Z,11.91
2023-11-01T18:29:43.450Z,11.92
2023-11-01T18:34:46.008Z,11.91
2023-11-01T18:39:49.852Z,11.88
2023-11-01T18:44:52.383Z,11.87
2023-11-01T18:50:00.569Z,11.86
2023-11-01T18:55:08.301Z,11.83
2023-11-01T19:00:18.658Z,11.80
2023-11-01T19:05:23.837Z,11.81
2023-11-01T19:10:33.623Z,11.81
2023-11-01T19:16:12.815Z,11.80
2023-11-01T19:21:16.035Z,11.78
2023-11-01T19:26:21.773Z,11.78
2023-11-01T19:31:24.404Z,11.76
2023-11-01T19:36:27.330Z,11.75
2023-11-01T19:41:31.229Z,11.73
2023-11-01T19:46:36.118Z,11.71
2023-11-01T19:51:38.732Z,11.71
2023-11-01T19:56:42.635Z,11.68
2023-11-01T20:01:45.361Z,11.68
2023-11-01T20:06:48.778Z,11.68
2023-11-01T20:11:53.480Z,11.65
2023-11-01T20:16:56.222Z,11.66
2023-11-01T20:21:58.792Z,11.62
2023-11-01T20:27:02.724Z,11.61
2023-11-01T20:32:05.592Z,11.63
2023-11-01T20:37:08.190Z,11.67
2023-11-01T20:42:12.217Z,11.69
2023-11-01T20:47:14.800Z,11.71
2023-11-01T20:52:17.408Z,11.71
2023-11-01T20:57:22.201Z,11.69
2023-11-01T21:02:24.869Z,11.63
2023-11-01T21:07:30.803Z,11.59
2023-11-01T21:12:34.971Z,11.59
2023-11-01T21:17:37.634Z,11.56
2023-11-01T21:22:41.607Z,11.55
2023-11-01T21:27:45.557Z,11.55
2023-11-01T21:32:49.810Z,11.55
2023-11-01T21:37:52.464Z,11.54
2023-11-01T21:42:56.899Z,11.53
2023-11-01T21:48:01.972Z,11.49
2023-11-01T21:53:07.834Z,11.46
2023-11-01T21:58:20.323Z,11.42
2023-11-01T22:03:37.705Z,11.36
2023-11-01T22:08:56.983Z,11.28
2023-11-01T22:14:03.574Z,11.22
2023-11-01T22:19:23.583Z,11.15
2023-11-01T22:24:29.237Z,11.11
2023-11-01T22:29:42.307Z,11.07
2023-11-01T22:34:46.389Z,11.02
2023-11-01T22:39:52.190Z,10.98
2023-11-01T22:44:56.361Z,10.92
2023-11-01T22:49:59.078Z,10.86
2023-11-01T22:55:01.658Z,10.82
2023-11-01T23:00:10.598Z,10.78
2023-11-01T23:05:15.599Z,10.70
2023-11-01T23:10:18.197Z,10.64
2023-11-01T23:15:22.103Z,10.59
2023-11-01T23:20:24.995Z,10.54
2023-11-01T23:25:30.806Z,10.47
2023-11-01T23:30:43.002Z,10.41
2023-11-01T23:35:46.519Z,10.36
2023-11-01T23:40:49.364Z,10.30
2023-11-01T23:46:10.972Z,10.25
2023-11-01T23:51:13.646Z,10.21
2023-11-01T23:56:23.972Z,10.19
